createdAt,value
2023-03-01T00:00:18.981Z,0
2023-03-01T00:01:05.926Z,0
2023-03-01T00:01:59.211Z,0
2023-03-01T00:02:46.205Z,0
2023-03-01T00:03:39.728Z,0
2023-03-01T00:04:26.550Z,0
2023-03-01T00:05:19.934Z,0
2023-03-01T00:06:06.842Z,0
2023-03-01T00:07:00.194Z,0
2023-03-01T00:07:47.127Z,0
2023-03-01T00:08:40.493Z,0
2023-03-01T00:09:27.446Z,0
2023-03-01T00:10:20.820Z,0
2023-03-01T00:11:07.778Z,0
2023-03-01T00:12:01.137Z,0
2023-03-01T00:12:48.023Z,0
2023-03-01T00:13:41.426Z,0
2023-03-01T00:14:28.405Z,0
2023-03-01T00:15:21.843Z,0
2023-03-01T00:16:08.627Z,0
2023-03-01T00:17:02.302Z,0
2023-03-01T00:17:48.951Z,0
2023-03-01T00:18:42.661Z,0
2023-03-01T00:19:29.222Z,0
2023-03-01T00:20:23.007Z,0
2023-03-01T00:21:09.509Z,0
2023-03-01T00:22:03.485Z,0
2023-03-01T00:22:49.821Z,0
2023-03-01T00:23:43.830Z,0
2023-03-01T00:24:30.164Z,0
2023-03-01T00:25:24.269Z,0
2023-03-01T00:26:10.436Z,0
2023-03-01T00:27:04.658Z,0
2023-03-01T00:27:50.751Z,0
2023-03-01T00:28:45.038Z,0
2023-03-01T00:29:31.035Z,0
2023-03-01T00:30:25.614Z,0
2023-03-01T00:31:11.423Z,0
2023-03-01T00:32:05.976Z,0
2023-03-01T00:32:51.681Z,0
2023-03-01T00:33:46.264Z,0
2023-03-01T00:34:32.002Z,0
2023-03-01T00:35:26.586Z,0
2023-03-01T00:36:12.312Z,0
2023-03-01T00:37:06.950Z,0
2023-03-01T00:37:52.692Z,0
2023-03-01T00:38:47.297Z,0
2023-03-01T00:39:32.989Z,0
2023-03-01T00:40:27.563Z,0
2023-03-01T00:41:13.291Z,0
2023-03-01T00:42:07.806Z,0
2023-03-01T00:42:53.578Z,0
2023-03-01T00:43:48.180Z,0
2023-03-01T00:44:33.912Z,0
2023-03-01T00:45:28.541Z,0
2023-03-01T00:46:14.250Z,0
2023-03-01T00:47:08.777Z,0
2023-03-01T00:47:54.487Z,0
2023-03-01T00:48:49.177Z,0
2023-03-01T00:49:34.786Z,0
2023-03-01T00:50:29.433Z,0
2023-03-01T00:51:15.084Z,0
2023-03-01T00:52:09.755Z,0
2023-03-01T00:52:55.368Z,0
2023-03-01T00:53:50.170Z,0
2023-03-01T00:54:35.686Z,0
2023-03-01T00:55:30.444Z,0
2023-03-01T00:56:16.021Z,0
2023-03-01T00:57:10.751Z,0
2023-03-01T00:57:56.251Z,0
2023-03-01T00:58:51.125Z,0
2023-03-01T00:59:36.555Z,0
2023-03-01T01:00:31.508Z,0
2023-03-01T01:01:16.890Z,0
2023-03-01T01:02:11.768Z,0
2023-03-01T01:02:57.138Z,0
2023-03-01T01:03:51.979Z,0
2023-03-01T01:04:37.445Z,0
2023-03-01T01:05:32.362Z,0
2023-03-01T01:06:17.745Z,0
2023-03-01T01:07:12.736Z,0
2023-03-01T01:07:58.023Z,0
2023-03-01T01:08:53.036Z,0
2023-03-01T01:09:38.344Z,0
2023-03-01T01:10:33.516Z,0
2023-03-01T01:11:18.661Z,0
2023-03-01T01:12:13.946Z,0
2023-03-01T01:12:58.916Z,0
2023-03-01T01:13:54.273Z,0
2023-03-01T01:14:39.259Z,0
2023-03-01T01:15:34.613Z,0
2023-03-01T01:16:19.546Z,0
2023-03-01T01:17:14.886Z,0
2023-03-01T01:17:59.862Z,0
2023-03-01T01:18:55.188Z,0
2023-03-01T01:19:40.169Z,0
2023-03-01T01:20:35.590Z,0
2023-03-01T01:21:20.438Z,0
2023-03-01T01:22:16.023Z,0
2023-03-01T01:23:00.790Z,0
2023-03-01T01:23:56.437Z,0
2023-03-01T01:24:41.094Z,0
2023-03-01T01:25:36.743Z,0
2023-03-01T01:26:21.394Z,0
2023-03-01T01:27:17.144Z,0
2023-03-01T01:28:01.685Z,0
2023-03-01T01:28:57.596Z,0
2023-03-01T01:29:42.006Z,0
2023-03-01T01:30:38.051Z,0
2023-03-01T01:31:22.332Z,0
2023-03-01T01:32:18.503Z,0
2023-03-01T01:33:02.616Z,0
2023-03-01T01:33:58.818Z,0
2023-03-01T01:34:43.025Z,0
2023-03-01T01:35:39.186Z,0
2023-03-01T01:36:23.221Z,0
2023-03-01T01:37:19.510Z,0
2023-03-01T01:38:03.526Z,0
2023-03-01T01:38:59.973Z,0
2023-03-01T01:39:43.845Z,0
2023-03-01T01:40:40.480Z,0
2023-03-01T01:41:24.128Z,0
2023-03-01T01:42:20.985Z,0
2023-03-01T01:43:04.432Z,0
2023-03-01T01:44:01.296Z,0
2023-03-01T01:44:44.731Z,0
2023-03-01T01:45:41.794Z,0
2023-03-01T01:46:25.118Z,0
2023-03-01T01:47:22.165Z,0
2023-03-01T01:48:05.340Z,0
2023-03-01T01:49:02.556Z,0
2023-03-01T01:49:45.622Z,0
2023-03-01T01:50:42.934Z,0
2023-03-01T01:51:25.915Z,0
2023-03-01T01:52:23.200Z,0
2023-03-01T01:53:06.225Z,0
2023-03-01T01:54:03.574Z,0
2023-03-01T01:54:46.552Z,0
2023-03-01T01:55:44.005Z,0
2023-03-01T01:56:26.818Z,0
2023-03-01T01:57:24.359Z,0
2023-03-01T01:58:07.118Z,0
2023-03-01T01:59:04.701Z,0
2023-03-01T01:59:47.414Z,0
2023-03-01T02:00:45.118Z,0
2023-03-01T02:01:27.707Z,0
2023-03-01T02:02:25.586Z,0
2023-03-01T02:03:08.174Z,0
2023-03-01T02:04:05.871Z,0
2023-03-01T02:04:48.435Z,0
2023-03-01T02:05:46.828Z,0
2023-03-01T02:06:29.026Z,0
2023-03-01T02:07:26.715Z,0
2023-03-01T02:08:08.955Z,0
2023-03-01T02:09:07.117Z,0
2023-03-01T02:09:49.250Z,0
2023-03-01T02:10:47.503Z,0
2023-03-01T02:11:29.548Z,0
2023-03-01T02:12:27.908Z,0
2023-03-01T02:13:09.870Z,0
2023-03-01T02:14:08.286Z,0
2023-03-01T02:14:50.163Z,0
2023-03-01T02:15:48.744Z,0
2023-03-01T02:16:30.995Z,0
2023-03-01T02:17:29.224Z,0
2023-03-01T02:18:10.785Z,0
2023-03-01T02:19:09.489Z,0
2023-03-01T02:19:51.052Z,0
2023-03-01T02:20:49.873Z,0
2023-03-01T02:21:31.358Z,0
2023-03-01T02:22:30.343Z,0
2023-03-01T02:23:11.702Z,0
2023-03-01T02:24:10.687Z,0
2023-03-01T02:24:51.961Z,0
2023-03-01T02:25:51.141Z,0
2023-03-01T02:26:32.633Z,0
2023-03-01T02:27:31.536Z,0
2023-03-01T02:28:12.650Z,0
2023-03-01T02:29:11.915Z,0
2023-03-01T02:29:52.985Z,0
2023-03-01T02:30:52.372Z,0
2023-03-01T02:31:33.390Z,0
2023-03-01T02:32:32.720Z,0
2023-03-01T02:33:13.614Z,0
2023-03-01T02:34:13.167Z,0
2023-03-01T02:34:53.958Z,0
2023-03-01T02:35:53.626Z,0
2023-03-01T02:36:34.254Z,0
2023-03-01T02:37:33.999Z,0
2023-03-01T02:38:14.498Z,0
2023-03-01T02:39:14.414Z,0
2023-03-01T02:39:54.812Z,0
2023-03-01T02:40:54.959Z,0
2023-03-01T02:41:35.080Z,0
2023-03-01T02:42:35.354Z,0
2023-03-01T02:43:15.405Z,0
2023-03-01T02:44:15.795Z,0
2023-03-01T02:44:55.728Z,0
2023-03-01T02:45:56.212Z,0
2023-03-01T02:46:36.047Z,0
2023-03-01T02:47:36.550Z,0
2023-03-01T02:48:16.305Z,0
2023-03-01T02:49:16.889Z,0
2023-03-01T02:49:56.601Z,0
2023-03-01T02:50:57.253Z,0
2023-03-01T02:51:36.909Z,0
2023-03-01T02:52:37.604Z,0
2023-03-01T02:53:17.199Z,0
2023-03-01T02:54:17.885Z,0
2023-03-01T02:54:57.532Z,0
2023-03-01T02:55:58.286Z,0
2023-03-01T02:56:37.794Z,0
2023-03-01T02:57:38.669Z,0
2023-03-01T02:58:18.109Z,0
2023-03-01T02:59:18.980Z,0
2023-03-01T02:59:58.397Z,0
2023-03-01T03:00:59.422Z,0
2023-03-01T03:01:38.680Z,0
2023-03-01T03:02:39.759Z,0
2023-03-01T03:03:18.983Z,0
2023-03-01T03:04:19.931Z,0
2023-03-01T03:04:59.319Z,0
2023-03-01T03:06:00.404Z,0
2023-03-01T03:06:39.578Z,0
2023-03-01T03:07:40.740Z,0
2023-03-01T03:08:19.974Z,0
2023-03-01T03:09:21.030Z,0
2023-03-01T03:10:00.178Z,0
2023-03-01T03:11:01.333Z,0
2023-03-01T03:11:40.468Z,0
2023-03-01T03:12:41.776Z,0
2023-03-01T03:13:20.753Z,0
2023-03-01T03:14:22.145Z,0
2023-03-01T03:15:01.066Z,0
2023-03-01T03:16:02.669Z,0
2023-03-01T03:16:41.456Z,0
2023-03-01T03:17:45.158Z,0
2023-03-01T03:18:21.655Z,0
2023-03-01T03:19:23.522Z,0
2023-03-01T03:20:01.943Z,0
2023-03-01T03:21:04.030Z,0
2023-03-01T03:21:42.231Z,0
2023-03-01T03:22:44.441Z,0
2023-03-01T03:23:22.533Z,0
2023-03-01T03:24:24.819Z,0
2023-03-01T03:25:02.862Z,0
2023-03-01T03:26:05.363Z,0
2023-03-01T03:26:43.138Z,0
2023-03-01T03:27:45.683Z,0
2023-03-01T03:28:23.445Z,0
2023-03-01T03:29:26.041Z,0
2023-03-01T03:30:03.747Z,0
2023-03-01T03:31:06.521Z,0
2023-03-01T03:32:46.692Z,0
2023-03-01T03:33:24.406Z,0
2023-03-01T03:34:27.088Z,0
2023-03-01T03:35:04.753Z,0
2023-03-01T03:36:07.429Z,0
2023-03-01T03:36:45.002Z,0
2023-03-01T03:37:47.724Z,0
2023-03-01T03:38:25.333Z,0
2023-03-01T03:39:28.003Z,0
2023-03-01T03:40:05.611Z,0
2023-03-01T03:41:08.284Z,0
2023-03-01T03:41:45.914Z,0
2023-03-01T03:42:48.616Z,0
2023-03-01T03:43:26.241Z,0
2023-03-01T03:44:28.984Z,0
2023-03-01T03:45:06.697Z,0
2023-03-01T03:46:09.402Z,0
2023-03-01T03:46:46.826Z,0
2023-03-01T03:47:49.665Z,0
2023-03-01T03:48:27.138Z,0
2023-03-01T03:49:29.999Z,0
2023-03-01T03:50:07.421Z,0
2023-03-01T03:51:10.334Z,0
2023-03-01T03:51:47.755Z,0
2023-03-01T03:52:50.673Z,0
2023-03-01T03:53:28.017Z,0
2023-03-01T03:54:30.948Z,0
2023-03-01T03:55:08.323Z,0
2023-03-01T03:56:11.252Z,0
2023-03-01T03:56:48.656Z,0
2023-03-01T03:57:51.601Z,0
2023-03-01T03:58:28.941Z,0
2023-03-01T03:59:31.959Z,0
2023-03-01T04:00:09.229Z,0
2023-03-01T04:01:12.260Z,0
2023-03-01T04:01:49.606Z,0
2023-03-01T04:02:52.621Z,0
2023-03-01T04:03:29.841Z,0
2023-03-01T04:04:32.898Z,0
2023-03-01T04:05:10.148Z,0
2023-03-01T04:06:13.224Z,0
2023-03-01T04:06:50.433Z,0
2023-03-01T04:07:53.572Z,0
2023-03-01T04:08:30.726Z,0
2023-03-01T04:09:33.886Z,0
2023-03-01T04:10:11.021Z,0
2023-03-01T04:11:14.348Z,0
2023-03-01T04:11:51.349Z,0
2023-03-01T04:12:54.841Z,0
2023-03-01T04:13:31.648Z,0
2023-03-01T04:14:35.258Z,0
2023-03-01T04:15:11.945Z,0
2023-03-01T04:16:15.755Z,0
2023-03-01T04:16:52.306Z,0
2023-03-01T04:17:55.953Z,0
2023-03-01T04:18:32.550Z,0
2023-03-01T04:19:36.332Z,0
2023-03-01T04:20:12.879Z,0
2023-03-01T04:21:16.680Z,0
2023-03-01T04:21:53.266Z,0
2023-03-01T04:22:57.040Z,0
2023-03-01T04:23:33.640Z,0
2023-03-01T04:24:37.374Z,0
2023-03-01T04:25:14.035Z,0
2023-03-01T04:26:17.734Z,0
2023-03-01T04:26:54.370Z,0
2023-03-01T04:27:58.160Z,0
2023-03-01T04:28:34.811Z,0
2023-03-01T04:29:38.603Z,0
2023-03-01T04:30:15.140Z,0
2023-03-01T04:31:19.115Z,0
2023-03-01T04:31:55.569Z,0
2023-03-01T04:32:59.412Z,0
2023-03-01T04:33:35.807Z,0
2023-03-01T04:34:39.794Z,0
2023-03-01T04:35:16.171Z,0
2023-03-01T04:36:20.373Z,0
2023-03-01T04:36:56.476Z,0
2023-03-01T04:38:00.611Z,0
2023-03-01T04:38:36.779Z,0
2023-03-01T04:39:41.010Z,0
2023-03-01T04:40:17.113Z,0
2023-03-01T04:41:21.388Z,0
2023-03-01T04:41:57.443Z,0
2023-03-01T04:43:01.764Z,0
2023-03-01T04:43:37.731Z,0
2023-03-01T04:44:42.200Z,0
2023-03-01T04:45:18.153Z,0
2023-03-01T04:46:22.545Z,0
2023-03-01T04:46:58.490Z,0
2023-03-01T04:48:02.868Z,0
2023-03-01T04:48:38.854Z,0
2023-03-01T04:49:43.178Z,0
2023-03-01T04:50:19.233Z,0
2023-03-01T04:51:23.464Z,0
2023-03-01T04:51:59.631Z,0
2023-03-01T04:53:03.772Z,0
2023-03-01T04:53:40.005Z,0
2023-03-01T04:54:44.049Z,0
2023-03-01T04:55:20.401Z,0
2023-03-01T04:56:24.397Z,0
2023-03-01T04:57:00.777Z,0
2023-03-01T04:58:04.660Z,0
2023-03-01T04:58:41.151Z,0
2023-03-01T04:59:44.978Z,0
2023-03-01T05:01:25.300Z,0
2023-03-01T05:02:01.912Z,0
2023-03-01T05:03:05.718Z,0
2023-03-01T05:03:43.544Z,0
2023-03-01T05:04:46.099Z,0
2023-03-01T05:05:22.663Z,0
2023-03-01T05:06:26.471Z,0
2023-03-01T05:07:02.965Z,0
2023-03-01T05:08:06.831Z,0
2023-03-01T05:08:43.299Z,0
2023-03-01T05:09:47.189Z,0
2023-03-01T05:10:23.632Z,0
2023-03-01T05:11:27.563Z,0
2023-03-01T05:12:04.028Z,0
2023-03-01T05:13:07.984Z,0
2023-03-01T05:13:44.375Z,0
2023-03-01T05:14:48.363Z,0
2023-03-01T05:15:24.650Z,0
2023-03-01T05:16:29.056Z,0
2023-03-01T05:17:04.987Z,0
2023-03-01T05:18:09.007Z,0
2023-03-01T05:18:45.299Z,0
2023-03-01T05:19:49.418Z,0
2023-03-01T05:20:25.601Z,0
2023-03-01T05:21:29.881Z,0
2023-03-01T05:22:05.898Z,0
2023-03-01T05:23:10.280Z,0
2023-03-01T05:23:46.190Z,0
2023-03-01T05:24:50.670Z,0
2023-03-01T05:25:26.482Z,0
2023-03-01T05:26:31.179Z,0
2023-03-01T05:27:06.802Z,0
2023-03-01T05:28:11.417Z,0
2023-03-01T05:28:47.071Z,0
2023-03-01T05:29:51.857Z,0
2023-03-01T05:30:27.395Z,0
2023-03-01T05:31:32.339Z,0
2023-03-01T05:32:07.786Z,0
2023-03-01T05:33:12.544Z,0
2023-03-01T05:33:48.030Z,0
2023-03-01T05:34:52.870Z,0
2023-03-01T05:35:28.368Z,0
2023-03-01T05:36:33.537Z,0
2023-03-01T05:37:08.633Z,0
2023-03-01T05:38:13.581Z,0
2023-03-01T05:38:48.917Z,0
2023-03-01T05:39:53.926Z,0
2023-03-01T05:40:29.229Z,0
2023-03-01T05:41:34.189Z,0
2023-03-01T05:42:09.559Z,0
2023-03-01T05:43:14.518Z,0
2023-03-01T05:43:49.865Z,0
2023-03-01T05:44:54.777Z,0
2023-03-01T05:45:30.160Z,0
2023-03-01T05:46:35.051Z,0
2023-03-01T05:47:10.460Z,0
2023-03-01T05:48:15.407Z,0
2023-03-01T05:48:50.755Z,0
2023-03-01T05:49:55.735Z,0
2023-03-01T05:50:31.065Z,0
2023-03-01T05:51:36.051Z,0
2023-03-01T05:52:11.363Z,0
2023-03-01T05:53:16.362Z,0
2023-03-01T05:53:51.664Z,0
2023-03-01T05:54:56.711Z,0
2023-03-01T05:55:31.971Z,0
2023-03-01T05:56:37.045Z,0
2023-03-01T05:57:12.281Z,0
2023-03-01T05:58:17.358Z,0
2023-03-01T05:58:52.579Z,0
2023-03-01T05:59:57.703Z,0
2023-03-01T06:00:32.879Z,0
2023-03-01T06:01:38.018Z,0
2023-03-01T06:02:13.190Z,0
2023-03-01T06:03:18.430Z,0
2023-03-01T06:03:53.497Z,0
2023-03-01T06:04:59.046Z,0
2023-03-01T06:05:33.863Z,0
2023-03-01T06:06:39.299Z,0
2023-03-01T06:07:14.094Z,0
2023-03-01T06:08:19.726Z,0
2023-03-01T06:08:54.436Z,0
2023-03-01T06:10:00.184Z,0
2023-03-01T06:10:34.719Z,0
2023-03-01T06:11:40.593Z,0
2023-03-01T06:12:14.997Z,0
2023-03-01T06:13:21.029Z,0
2023-03-01T06:13:55.305Z,0
2023-03-01T06:15:01.451Z,0
2023-03-01T06:15:35.669Z,0
2023-03-01T06:16:41.836Z,0
2023-03-01T06:17:15.936Z,0
2023-03-01T06:18:22.256Z,0
2023-03-01T06:18:56.277Z,0
2023-03-01T06:20:02.603Z,0.054
2023-03-01T06:20:36.612Z,0.056
2023-03-01T06:21:42.990Z,0.06
2023-03-01T06:22:16.891Z,0.062
2023-03-01T06:23:23.392Z,0.068
2023-03-01T06:23:57.165Z,0.07
2023-03-01T06:25:03.795Z,0.074
2023-03-01T06:25:37.462Z,0.077
2023-03-01T06:26:44.048Z,0.084
2023-03-01T06:27:17.753Z,0.087
2023-03-01T06:28:24.406Z,0.093
2023-03-01T06:28:58.061Z,0.096
2023-03-01T06:30:04.827Z,0.104
2023-03-01T06:30:38.364Z,0.107
2023-03-01T06:31:45.079Z,0.113
2023-03-01T06:32:18.775Z,0.114
2023-03-01T06:33:25.487Z,0.12
2023-03-01T06:33:59.036Z,0.123
2023-03-01T06:35:05.830Z,0.129
2023-03-01T06:35:39.336Z,0.132
2023-03-01T06:36:46.212Z,0.146
2023-03-01T06:37:19.614Z,0.149
2023-03-01T06:38:26.550Z,0.156
2023-03-01T06:38:59.937Z,0.158
2023-03-01T06:40:06.877Z,0.165
2023-03-01T06:40:40.245Z,0.174
2023-03-01T06:41:47.609Z,0.196
2023-03-01T06:42:20.578Z,0.201
2023-03-01T06:43:28.032Z,0.212
2023-03-01T06:44:00.918Z,0.216
2023-03-01T06:45:08.383Z,0.238
2023-03-01T06:45:41.285Z,0.24
2023-03-01T06:46:48.805Z,0.249
2023-03-01T06:47:21.580Z,0.257
2023-03-01T06:48:29.158Z,0.3
2023-03-01T06:49:01.912Z,0.33
2023-03-01T06:50:09.621Z,0.373
2023-03-01T06:50:42.318Z,0.42
2023-03-01T06:51:49.962Z,0.494
2023-03-01T06:52:22.609Z,0.593
2023-03-01T06:53:30.360Z,0.742
2023-03-01T06:54:03.064Z,0.764
2023-03-01T06:55:10.762Z,0.824
2023-03-01T06:55:43.423Z,0.861
2023-03-01T06:56:51.212Z,0.964
2023-03-01T06:57:23.802Z,1.011
2023-03-01T06:58:31.690Z,1.067
2023-03-01T06:59:04.194Z,1.1
2023-03-01T07:00:12.106Z,1.138
2023-03-01T07:00:44.575Z,1.145
2023-03-01T07:01:52.615Z,1.189
2023-03-01T07:02:24.999Z,1.21
2023-03-01T07:03:32.984Z,1.245
2023-03-01T07:04:05.345Z,1.26
2023-03-01T07:05:13.421Z,1.314
2023-03-01T07:06:53.807Z,1.355
2023-03-01T07:07:26.004Z,1.39
2023-03-01T07:09:06.422Z,1.441
2023-03-01T07:10:10.787Z,1.52
2023-03-01T07:10:46.733Z,1.54
2023-03-01T07:11:51.023Z,1.577
2023-03-01T07:12:27.087Z,1.597
2023-03-01T07:13:31.343Z,1.631
2023-03-01T07:14:07.432Z,1.641
2023-03-01T07:15:11.625Z,1.693
2023-03-01T07:15:47.794Z,1.728
2023-03-01T07:16:51.968Z,1.778
2023-03-01T07:17:28.098Z,1.781
2023-03-01T07:18:32.241Z,1.822
2023-03-01T07:19:08.408Z,1.866
2023-03-01T07:20:12.690Z,1.898
2023-03-01T07:20:48.757Z,1.88
2023-03-01T07:21:53.103Z,1.909
2023-03-01T07:22:29.139Z,1.926
2023-03-01T07:23:33.452Z,1.93
2023-03-01T07:24:09.532Z,1.956
2023-03-01T07:25:13.872Z,2
2023-03-01T07:25:49.857Z,2.047
2023-03-01T07:26:54.240Z,2.094
2023-03-01T07:27:30.275Z,2.137
2023-03-01T07:28:34.636Z,2.175
2023-03-01T07:29:10.594Z,2.186
2023-03-01T07:30:15.113Z,2.259
2023-03-01T07:30:50.895Z,2.295
2023-03-01T07:31:55.535Z,2.332
2023-03-01T07:32:31.374Z,2.378
2023-03-01T07:33:35.896Z,2.421
2023-03-01T07:34:11.560Z,2.473
2023-03-01T07:35:16.306Z,2.496
2023-03-01T07:35:51.894Z,2.506
2023-03-01T07:36:56.642Z,2.51
2023-03-01T07:37:32.195Z,2.542
2023-03-01T07:38:36.994Z,2.578
2023-03-01T07:39:12.488Z,2.612
2023-03-01T07:40:17.356Z,2.652
2023-03-01T07:41:58.075Z,2.701
2023-03-01T07:42:33.108Z,2.737
2023-03-01T07:43:38.110Z,2.77
2023-03-01T07:44:13.422Z,2.813
2023-03-01T07:45:18.466Z,2.862
2023-03-01T07:45:53.755Z,2.885
2023-03-01T07:46:58.879Z,2.912
2023-03-01T07:47:34.037Z,2.919
2023-03-01T07:48:39.281Z,2.997
2023-03-01T07:49:14.374Z,3.012
2023-03-01T07:50:19.785Z,3.045
2023-03-01T07:50:54.664Z,3.076
2023-03-01T07:52:00.150Z,3.106
2023-03-01T07:52:35.002Z,3.136
2023-03-01T07:53:40.513Z,3.183
2023-03-01T07:54:15.282Z,3.214
2023-03-01T07:55:20.977Z,3.262
2023-03-01T07:55:55.645Z,3.276
2023-03-01T07:57:01.250Z,3.312
2023-03-01T07:57:35.980Z,3.346
2023-03-01T07:58:41.719Z,3.222
2023-03-01T07:59:16.358Z,3.409
2023-03-01T08:00:22.219Z,3.457
2023-03-01T08:00:56.682Z,3.472
2023-03-01T08:02:02.691Z,3.504
2023-03-01T08:02:37.041Z,3.53
2023-03-01T08:03:43.068Z,3.566
2023-03-01T08:04:17.467Z,3.597
2023-03-01T08:05:23.457Z,3.625
2023-03-01T08:05:57.826Z,3.647
2023-03-01T08:07:03.989Z,3.696
2023-03-01T08:07:38.177Z,3.703
2023-03-01T08:08:44.390Z,3.751
2023-03-01T08:09:18.617Z,3.773
2023-03-01T08:10:24.910Z,3.814
2023-03-01T08:10:58.932Z,3.837
2023-03-01T08:12:05.274Z,3.885
2023-03-01T08:12:39.334Z,3.903
2023-03-01T08:13:45.734Z,3.938
2023-03-01T08:14:19.672Z,3.961
2023-03-01T08:15:26.090Z,4.003
2023-03-01T08:16:00.172Z,4.019
2023-03-01T08:17:06.549Z,4.058
2023-03-01T08:17:40.438Z,4.089
2023-03-01T08:18:46.882Z,4.128
2023-03-01T08:19:20.785Z,4.158
2023-03-01T08:20:27.287Z,4.208
2023-03-01T08:21:01.218Z,4.217
2023-03-01T08:22:07.687Z,4.243
2023-03-01T08:22:41.536Z,4.277
2023-03-01T08:23:48.083Z,4.294
2023-03-01T08:24:21.833Z,4.315
2023-03-01T08:25:28.434Z,4.355
2023-03-01T08:26:02.172Z,4.377
2023-03-01T08:27:08.851Z,4.42
2023-03-01T08:27:42.452Z,4.438
2023-03-01T08:28:49.361Z,4.458
2023-03-01T08:29:22.825Z,4.497
2023-03-01T08:30:29.894Z,4.538
2023-03-01T08:31:03.226Z,4.552
2023-03-01T08:32:10.399Z,4.584
2023-03-01T08:32:43.765Z,4.604
2023-03-01T08:33:50.880Z,4.616
2023-03-01T08:34:23.933Z,4.636
2023-03-01T08:35:31.435Z,4.688
2023-03-01T08:36:04.354Z,4.712
2023-03-01T08:37:11.841Z,4.747
2023-03-01T08:37:44.642Z,4.763
2023-03-01T08:38:52.260Z,4.794
2023-03-01T08:39:25.037Z,4.794
2023-03-01T08:40:32.708Z,4.835
2023-03-01T08:41:05.370Z,4.864
2023-03-01T08:42:13.106Z,4.878
2023-03-01T08:42:45.773Z,4.904
2023-03-01T08:43:53.696Z,4.943
2023-03-01T08:44:26.130Z,4.957
2023-03-01T08:46:06.484Z,4.998
2023-03-01T08:47:25.483Z,5.059
2023-03-01T08:47:46.818Z,5.072
2023-03-01T08:49:05.786Z,5.108
2023-03-01T08:49:27.177Z,5.111
2023-03-01T08:50:46.184Z,5.14
2023-03-01T08:51:07.535Z,5.143
2023-03-01T08:52:47.868Z,5.197
2023-03-01T08:54:28.152Z,4.963
2023-03-01T08:56:08.494Z,5.278
2023-03-01T08:57:48.779Z,5.294
2023-03-01T08:59:29.029Z,5.404
2023-03-01T09:01:09.350Z,5.425
2023-03-01T09:02:49.640Z,5.496
2023-03-01T09:04:30.000Z,5.525
2023-03-01T09:06:10.217Z,5.559
2023-03-01T09:07:50.533Z,5.617
2023-03-01T09:09:30.840Z,5.636
2023-03-01T09:11:11.111Z,5.697
2023-03-01T09:12:51.411Z,5.723
2023-03-01T09:13:16.564Z,5.742
2023-03-01T09:14:31.885Z,5.769
2023-03-01T09:14:56.999Z,5.783
2023-03-01T09:16:12.113Z,5.809
2023-03-01T09:16:37.475Z,5.82
2023-03-01T09:17:52.386Z,5.871
2023-03-01T09:18:17.860Z,5.876
2023-03-01T09:19:32.709Z,5.895
2023-03-01T09:19:58.274Z,5.918
2023-03-01T09:21:13.112Z,5.942
2023-03-01T09:21:40.874Z,5.951
2023-03-01T09:22:53.402Z,5.985
2023-03-01T09:23:19.064Z,5.984
2023-03-01T09:24:33.771Z,6.003
2023-03-01T09:24:59.467Z,6.018
2023-03-01T09:26:14.083Z,6.052
2023-03-01T09:26:39.951Z,6.052
2023-03-01T09:27:54.435Z,6.065
2023-03-01T09:28:29.377Z,6.085
2023-03-01T09:29:34.754Z,6.104
2023-03-01T09:30:00.750Z,6.116
2023-03-01T09:31:15.183Z,6.089
2023-03-01T09:31:41.080Z,5.655
2023-03-01T09:32:55.532Z,6.094
2023-03-01T09:33:21.477Z,6.141
2023-03-01T09:34:35.925Z,6.181
2023-03-01T09:35:01.866Z,6.193
2023-03-01T09:36:16.345Z,6.25
2023-03-01T09:36:42.337Z,6.263
2023-03-01T09:37:56.736Z,6.284
2023-03-01T09:38:22.743Z,6.283
2023-03-01T09:39:37.085Z,6.306
2023-03-01T09:40:03.184Z,6.313
2023-03-01T09:41:17.437Z,6.329
2023-03-01T09:41:43.538Z,6.345
2023-03-01T09:42:57.767Z,6.357
2023-03-01T09:43:24.009Z,6.387
2023-03-01T09:44:38.256Z,6.429
2023-03-01T09:45:04.385Z,6.434
2023-03-01T09:46:18.620Z,6.457
2023-03-01T09:47:58.917Z,6.499
2023-03-01T09:49:39.318Z,6.532
2023-03-01T09:52:59.996Z,6.59
2023-03-01T09:54:40.432Z,6.653
2023-03-01T09:56:20.815Z,6.681
2023-03-01T09:58:01.186Z,6.684
2023-03-01T09:59:41.584Z,6.748
2023-03-01T10:01:22.021Z,6.779
2023-03-01T10:03:02.488Z,6.589
2023-03-01T10:04:42.830Z,6.828
2023-03-01T10:06:34.627Z,6.863
2023-03-01T10:08:03.577Z,6.863
2023-03-01T10:09:43.873Z,6.91
2023-03-01T10:11:25.296Z,6.931
2023-03-01T10:13:04.647Z,6.921
2023-03-01T10:14:45.059Z,6.974
2023-03-01T10:16:25.397Z,7.007
2023-03-01T10:18:05.725Z,7.064
2023-03-01T10:19:46.047Z,7.071
2023-03-01T10:21:26.448Z,7.158
2023-03-01T10:23:06.841Z,7.186
2023-03-01T10:24:47.263Z,7.209
2023-03-01T10:26:27.557Z,7.215
2023-03-01T10:28:07.908Z,7.261
2023-03-01T10:29:48.375Z,7.29
2023-03-01T10:31:29.139Z,7.346
2023-03-01T10:33:09.106Z,7.366
2023-03-01T10:34:49.444Z,7.378
2023-03-01T10:36:30.124Z,7.394
2023-03-01T10:38:10.238Z,7.397
2023-03-01T10:39:50.630Z,7.405
2023-03-01T10:41:31.239Z,7.467
2023-03-01T10:43:11.365Z,7.475
2023-03-01T10:44:51.786Z,7.482
2023-03-01T10:46:32.294Z,7.504
2023-03-01T10:48:12.642Z,7.527
2023-03-01T10:49:52.922Z,7.535
2023-03-01T10:51:33.487Z,7.542
2023-03-01T10:53:13.692Z,7.52
2023-03-01T10:54:54.044Z,7.497
2023-03-01T10:56:34.428Z,7.519
2023-03-01T10:58:14.807Z,7.571
2023-03-01T10:59:55.172Z,7.542
2023-03-01T11:01:35.990Z,7.562
2023-03-01T11:03:15.892Z,7.568
2023-03-01T11:04:56.265Z,7.565
2023-03-01T11:06:36.533Z,7.57
2023-03-01T11:08:16.825Z,7.606
2023-03-01T11:09:57.150Z,7.631
2023-03-01T11:11:37.453Z,7.643
2023-03-01T11:13:17.722Z,7.662
2023-03-01T11:14:58.055Z,7.678
2023-03-01T11:16:38.355Z,7.707
2023-03-01T11:18:18.667Z,7.726
2023-03-01T11:20:02.564Z,7.711
2023-03-01T11:21:39.324Z,7.735
2023-03-01T11:23:19.620Z,7.733
2023-03-01T11:25:09.375Z,7.721
2023-03-01T11:26:40.229Z,7.738
2023-03-01T11:28:20.502Z,7.755
2023-03-01T11:30:00.839Z,7.712
2023-03-01T11:31:52.359Z,7.751
2023-03-01T11:33:21.425Z,7.75
2023-03-01T11:35:01.762Z,7.743
2023-03-01T11:36:42.049Z,7.724
2023-03-01T11:38:22.362Z,7.668
2023-03-01T11:40:02.674Z,7.659
2023-03-01T11:41:42.974Z,7.64
2023-03-01T11:43:23.277Z,7.62
2023-03-01T11:45:03.558Z,7.603
2023-03-01T11:46:44.599Z,7.598
2023-03-01T11:48:24.177Z,7.584
2023-03-01T11:50:04.491Z,7.623
2023-03-01T11:51:44.763Z,7.619
2023-03-01T11:53:25.072Z,7.589
2023-03-01T11:55:05.345Z,7.601
2023-03-01T11:56:45.652Z,7.602
2023-03-01T11:58:26.021Z,7.662
2023-03-01T12:00:06.289Z,7.593
2023-03-01T12:01:46.669Z,7.602
2023-03-01T12:03:26.896Z,7.582
2023-03-01T12:05:07.209Z,7.576
2023-03-01T12:06:47.479Z,7.601
2023-03-01T12:08:27.789Z,7.572
2023-03-01T12:10:08.105Z,7.556
2023-03-01T12:11:48.381Z,7.513
2023-03-01T12:13:28.684Z,7.506
2023-03-01T12:15:09.041Z,7.516
2023-03-01T12:16:49.464Z,7.466
2023-03-01T12:18:29.814Z,7.436
2023-03-01T12:20:10.414Z,7.446
2023-03-01T12:21:50.614Z,7.464
2023-03-01T12:23:30.921Z,7.485
2023-03-01T12:25:11.374Z,7.485
2023-03-01T12:26:51.808Z,7.47
2023-03-01T12:28:32.220Z,7.492
2023-03-01T12:30:12.663Z,7.449
2023-03-01T12:31:53.231Z,7.442
2023-03-01T12:33:33.400Z,7.448
2023-03-01T12:35:13.788Z,7.415
2023-03-01T12:36:54.182Z,7.385
2023-03-01T12:38:34.645Z,7.359
2023-03-01T12:40:15.041Z,7.339
2023-03-01T12:41:55.351Z,7.333
2023-03-01T12:43:35.792Z,7.3
2023-03-01T12:45:16.155Z,7.264
2023-03-01T12:46:56.587Z,7.277
2023-03-01T12:48:37.011Z,7.259
2023-03-01T12:50:17.318Z,7.274
2023-03-01T12:51:58.579Z,7.239
2023-03-01T12:53:37.894Z,7.22
2023-03-01T12:55:18.188Z,7.198
2023-03-01T12:56:58.504Z,7.181
2023-03-01T12:58:49.134Z,7.132
2023-03-01T13:00:19.102Z,7.11
2023-03-01T13:01:59.427Z,7.088
2023-03-01T13:03:39.692Z,7.033
2023-03-01T13:05:19.982Z,7.042
2023-03-01T13:07:00.320Z,7.014
2023-03-01T13:08:40.596Z,7.043
2023-03-01T13:10:21.125Z,7.022
2023-03-01T13:12:02.895Z,7.006
2023-03-01T13:13:41.493Z,7.01
2023-03-01T13:15:21.839Z,6.962
2023-03-01T13:17:02.205Z,6.948
2023-03-01T13:18:42.403Z,6.9
2023-03-01T13:20:22.729Z,6.883
2023-03-01T13:22:03.010Z,6.861
2023-03-01T13:23:43.314Z,6.806
2023-03-01T13:25:27.575Z,6.776
2023-03-01T13:27:03.887Z,6.714
2023-03-01T13:28:44.249Z,6.674
2023-03-01T13:30:24.539Z,6.645
2023-03-01T13:32:05.256Z,6.64
2023-03-01T13:33:47.487Z,6.601
2023-03-01T13:35:25.501Z,6.539
2023-03-01T13:37:05.753Z,6.495
2023-03-01T13:38:46.050Z,6.389
2023-03-01T13:40:26.349Z,6.449
2023-03-01T13:42:06.671Z,6.387
2023-03-01T13:43:46.983Z,6.286
2023-03-01T13:45:27.266Z,6.326
2023-03-01T13:47:07.761Z,6.276
2023-03-01T13:48:47.865Z,6.234
2023-03-01T13:50:28.172Z,6.229
2023-03-01T13:52:08.483Z,6.143
2023-03-01T13:53:48.795Z,6.136
2023-03-01T13:55:29.138Z,6.146
2023-03-01T13:57:09.360Z,6.118
2023-03-01T13:58:49.687Z,6.048